sensor_id;sensor_type;location;lat;lon;timestamp;pressure;altitude;pressure_sealevel;temperature;humidity
6090;BME280;3073;42.660;23.316;2023-04-10T00:02:00;94588.06;;;18.60;42.64
6090;BME280;3073;42.660;23.316;2023-04-10T00:04:27;94585.09;;;18.53;42.13
6090;BME280;3073;42.660;23.316;2023-04-10T00:06:56;94587.09;;;19.16;41.08
6090;BME280;3073;42.660;23.316;2023-04-10T00:09:22;94592.16;;;18.93;40.48
6090;BME280;3073;42.660;23.316;2023-04-10T00:11:53;94581.94;;;18.19;40.46
6090;BME280;3073;42.660;23.316;2023-04-10T00:14:20;94576.59;;;17.54;40.91
6090;BME280;3073;42.660;23.316;2023-04-10T00:16:51;94577.50;;;17.87;40.15
6090;BME280;3073;42.660;23.316;2023-04-10T00:19:18;94576.41;;;17.50;40.94
6090;BME280;3073;42.660;23.316;2023-04-10T00:21:44;94573.59;;;17.89;39.81
6090;BME280;3073;42.660;23.316;2023-04-10T00:24:13;94567.31;;;17.53;39.36
6090;BME280;3073;42.660;23.316;2023-04-10T00:26:40;94570.44;;;17.74;39.53
6090;BME280;3073;42.660;23.316;2023-04-10T00:29:07;94570.34;;;18.54;38.33
6090;BME280;3073;42.660;23.316;2023-04-10T00:31:34;94570.16;;;19.10;37.64
6090;BME280;3073;42.660;23.316;2023-04-10T00:34:00;94570.53;;;19.17;37.50
6090;BME280;3073;42.660;23.316;2023-04-10T00:36:27;94573.31;;;19.20;37.62
6090;BME280;3073;42.660;23.316;2023-04-10T00:38:54;94566.53;;;19.38;37.36
6090;BME280;3073;42.660;23.316;2023-04-10T00:41:22;94568.31;;;20.14;36.31
6090;BME280;3073;42.660;23.316;2023-04-10T00:43:53;94570.38;;;20.26;35.92
6090;BME280;3073;42.660;23.316;2023-04-10T00:46:21;94568.03;;;18.98;37.32
6090;BME280;3073;42.660;23.316;2023-04-10T00:48:48;94560.28;;;19.39;37.30
6090;BME280;3073;42.660;23.316;2023-04-10T00:51:15;94562.19;;;19.20;37.12
6090;BME280;3073;42.660;23.316;2023-04-10T00:53:43;94564.31;;;19.59;36.88
6090;BME280;3073;42.660;23.316;2023-04-10T00:56:11;94569.53;;;19.94;36.74
6090;BME280;3073;42.660;23.316;2023-04-10T00:58:39;94567.41;;;20.19;36.38
6090;BME280;3073;42.660;23.316;2023-04-10T01:01:06;94558.25;;;19.63;36.76
6090;BME280;3073;42.660;23.316;2023-04-10T01:03:33;94566.59;;;20.10;36.69
6090;BME280;3073;42.660;23.316;2023-04-10T01:06:04;94563.16;;;20.00;36.53
6090;BME280;3073;42.660;23.316;2023-04-10T01:08:38;94556.84;;;19.57;37.72
6090;BME280;3073;42.660;23.316;2023-04-10T01:11:12;94555.06;;;19.80;36.63
6090;BME280;3073;42.660;23.316;2023-04-10T01:13:48;94555.03;;;19.93;36.53
6090;BME280;3073;42.660;23.316;2023-04-10T01:16:25;94556.22;;;19.74;36.35
6090;BME280;3073;42.660;23.316;2023-04-10T01:18:56;94551.75;;;19.52;36.85
6090;BME280;3073;42.660;23.316;2023-04-10T01:21:27;94554.44;;;19.33;37.21
6090;BME280;3073;42.660;23.316;2023-04-10T01:24:06;94557.03;;;20.32;36.42
6090;BME280;3073;42.660;23.316;2023-04-10T01:26:51;94559.19;;;20.39;36.34
6090;BME280;3073;42.660;23.316;2023-04-10T01:29:24;94555.28;;;19.15;38.08
6090;BME280;3073;42.660;23.316;2023-04-10T01:32:01;94552.53;;;19.52;37.76
6090;BME280;3073;42.660;23.316;2023-04-10T01:34:32;94547.34;;;19.12;38.08
6090;BME280;3073;42.660;23.316;2023-04-10T01:37:03;94552.50;;;18.71;38.53
6090;BME280;3073;42.660;23.316;2023-04-10T01:39:35;94549.84;;;19.03;38.56
6090;BME280;3073;42.660;23.316;2023-04-10T01:42:04;94543.31;;;19.06;38.56
6090;BME280;3073;42.660;23.316;2023-04-10T01:44:33;94551.19;;;19.28;38.44
6090;BME280;3073;42.660;23.316;2023-04-10T01:47:03;94553.25;;;18.71;39.00
6090;BME280;3073;42.660;23.316;2023-04-10T01:49:33;94552.69;;;19.15;38.81
6090;BME280;3073;42.660;23.316;2023-04-10T01:52:02;94553.84;;;19.77;37.99
6090;BME280;3073;42.660;23.316;2023-04-10T01:54:30;94545.91;;;19.60;38.16
6090;BME280;3073;42.660;23.316;2023-04-10T01:56:58;94545.50;;;19.39;38.00
6090;BME280;3073;42.660;23.316;2023-04-10T01:59:26;94554.81;;;19.68;37.53
6090;BME280;3073;42.660;23.316;2023-04-10T02:01:56;94549.16;;;19.25;38.08
6090;BME280;3073;42.660;23.316;2023-04-10T02:04:23;94545.22;;;20.26;37.39
6090;BME280;3073;42.660;23.316;2023-04-10T02:06:58;94548.47;;;20.32;37.32
6090;BME280;3073;42.660;23.316;2023-04-10T02:09:32;94543.06;;;19.84;37.81
6090;BME280;3073;42.660;23.316;2023-04-10T02:12:04;94533.53;;;19.93;38.27
6090;BME280;3073;42.660;23.316;2023-04-10T02:14:35;94541.22;;;20.42;37.68
6090;BME280;3073;42.660;23.316;2023-04-10T02:17:07;94536.25;;;19.88;38.12
6090;BME280;3073;42.660;23.316;2023-04-10T02:19:36;94542.31;;;20.41;37.72
6090;BME280;3073;42.660;23.316;2023-04-10T02:22:04;94538.16;;;19.19;39.14
6090;BME280;3073;42.660;23.316;2023-04-10T02:24:32;94531.25;;;19.91;38.33
6090;BME280;3073;42.660;23.316;2023-04-10T02:27:00;94523.53;;;20.22;37.94
6090;BME280;3073;42.660;23.316;2023-04-10T02:29:27;94516.97;;;20.38;37.53
6090;BME280;3073;42.660;23.316;2023-04-10T02:31:54;94518.66;;;21.04;36.85
6090;BME280;3073;42.660;23.316;2023-04-10T02:34:23;94514.13;;;20.79;36.90
6090;BME280;3073;42.660;23.316;2023-04-10T02:36:50;94508.00;;;20.00;37.70
6090;BME280;3073;42.660;23.316;2023-04-10T02:39:17;94510.75;;;20.70;37.29
6090;BME280;3073;42.660;23.316;2023-04-10T02:41:43;94506.41;;;20.35;37.65
6090;BME280;3073;42.660;23.316;2023-04-10T02:44:11;94500.13;;;20.89;36.83
6090;BME280;3073;42.660;23.316;2023-04-10T02:46:38;94497.81;;;20.48;37.27
6090;BME280;3073;42.660;23.316;2023-04-10T02:49:06;94500.41;;;20.48;37.18
6090;BME280;3073;42.660;23.316;2023-04-10T02:51:34;94497.34;;;21.16;36.68
6090;BME280;3073;42.660;23.316;2023-04-10T02:54:01;94496.19;;;20.61;37.27
6090;BME280;3073;42.660;23.316;2023-04-10T02:56:28;94497.63;;;20.75;36.96
6090;BME280;3073;42.660;23.316;2023-04-10T02:58:55;94494.81;;;21.02;36.70
6090;BME280;3073;42.660;23.316;2023-04-10T03:01:22;94492.06;;;20.60;37.25
6090;BME280;3073;42.660;23.316;2023-04-10T03:03:49;94490.16;;;20.43;37.76
6090;BME280;3073;42.660;23.316;2023-04-10T03:06:15;94495.50;;;20.77;36.95
6090;BME280;3073;42.660;23.316;2023-04-10T03:08:43;94491.22;;;20.42;37.28
6090;BME280;3073;42.660;23.316;2023-04-10T03:11:11;94491.38;;;20.45;37.45
6090;BME280;3073;42.660;23.316;2023-04-10T03:13:37;94490.06;;;20.48;37.77
6090;BME280;3073;42.660;23.316;2023-04-10T03:16:05;94497.16;;;20.73;37.46
6090;BME280;3073;42.660;23.316;2023-04-10T03:18:33;94497.19;;;20.82;37.06
6090;BME280;3073;42.660;23.316;2023-04-10T03:21:00;94496.53;;;20.68;37.04
6090;BME280;3073;42.660;23.316;2023-04-10T03:23:27;94492.06;;;20.90;36.97
6090;BME280;3073;42.660;23.316;2023-04-10T03:25:55;94500.94;;;21.06;36.87
6090;BME280;3073;42.660;23.316;2023-04-10T03:28:22;94498.72;;;20.74;37.25
6090;BME280;3073;42.660;23.316;2023-04-10T03:30:49;94502.59;;;20.32;37.72
6090;BME280;3073;42.660;23.316;2023-04-10T03:33:17;94501.31;;;20.74;37.21
6090;BME280;3073;42.660;23.316;2023-04-10T03:35:44;94499.50;;;20.52;37.39
6090;BME280;3073;42.660;23.316;2023-04-10T03:38:12;94502.81;;;20.22;38.16
6090;BME280;3073;42.660;23.316;2023-04-10T03:40:38;94505.13;;;20.24;38.32
6090;BME280;3073;42.660;23.316;2023-04-10T03:43:07;94504.56;;;20.27;38.19
6090;BME280;3073;42.660;23.316;2023-04-10T03:45:33;94501.50;;;20.55;38.01
6090;BME280;3073;42.660;23.316;2023-04-10T03:48:00;94502.41;;;20.51;37.85
6090;BME280;3073;42.660;23.316;2023-04-10T03:50:27;94509.94;;;20.39;38.49
6090;BME280;3073;42.660;23.316;2023-04-10T03:52:54;94514.09;;;20.40;38.31
6090;BME280;3073;42.660;23.316;2023-04-10T03:55:21;94511.06;;;20.46;38.21
6090;BME280;3073;42.660;23.316;2023-04-10T03:57:48;94515.66;;;20.49;38.27
6090;BME280;3073;42.660;23.316;2023-04-10T04:00:16;94514.19;;;20.57;38.01
6090;BME280;3073;42.660;23.316;2023-04-10T04:02:43;94517.13;;;20.42;38.52
6090;BME280;3073;42.660;23.316;2023-04-10T04:05:10;94516.41;;;20.05;39.36
6090;BME280;3073;42.660;23.316;2023-04-10T04:07:37;94523.78;;;19.54;40.07
6090;BME280;3073;42.660;23.316;2023-04-10T04:10:05;94527.94;;;19.77;40.57
6090;BME280;3073;42.660;23.316;2023-04-10T04:12:33;94516.78;;;20.13;39.82
6090;BME280;3073;42.660;23.316;2023-04-10T04:15:00;94524.41;;;19.95;40.36
6090;BME280;3073;42.660;23.316;2023-04-10T04:17:28;94532.63;;;20.11;39.96
6090;BME280;3073;42.660;23.316;2023-04-10T04:19:55;94529.50;;;20.23;39.85
6090;BME280;3073;42.660;23.316;2023-04-10T04:22:23;94530.03;;;20.11;40.31
6090;BME280;3073;42.660;23.316;2023-04-10T04:24:50;94527.63;;;20.15;40.49
6090;BME280;3073;42.660;23.316;2023-04-10T04:27:17;94528.22;;;20.34;40.07
6090;BME280;3073;42.660;23.316;2023-04-10T04:29:46;94534.81;;;20.40;40.01
6090;BME280;3073;42.660;23.316;2023-04-10T04:32:13;94537.16;;;20.50;39.91
6090;BME280;3073;42.660;23.316;2023-04-10T04:34:41;94536.13;;;19.30;41.11
6090;BME280;3073;42.660;23.316;2023-04-10T04:37:08;94539.44;;;18.30;42.72
6090;BME280;3073;42.660;23.316;2023-04-10T04:39:35;94540.47;;;19.21;41.83
6090;BME280;3073;42.660;23.316;2023-04-10T04:42:01;94543.88;;;18.75;42.11
6090;BME280;3073;42.660;23.316;2023-04-10T04:44:28;94541.91;;;18.54;42.70
6090;BME280;3073;42.660;23.316;2023-04-10T04:46:55;94544.34;;;19.73;41.26
6090;BME280;3073;42.660;23.316;2023-04-10T04:49:22;94539.81;;;19.78;41.02
6090;BME280;3073;42.660;23.316;2023-04-10T04:51:50;94535.53;;;19.96;40.39
6090;BME280;3073;42.660;23.316;2023-04-10T04:54:17;94539.22;;;20.17;40.82
6090;BME280;3073;42.660;23.316;2023-04-10T04:56:44;94549.72;;;20.87;39.80
6090;BME280;3073;42.660;23.316;2023-04-10T04:59:11;94547.97;;;20.74;39.73
6090;BME280;3073;42.660;23.316;2023-04-10T05:01:38;94552.16;;;20.92;39.22
6090;BME280;3073;42.660;23.316;2023-04-10T05:04:05;94555.09;;;20.69;39.42
6090;BME280;3073;42.660;23.316;2023-04-10T05:06:32;94553.47;;;21.51;38.56
6090;BME280;3073;42.660;23.316;2023-04-10T05:09:00;94558.06;;;21.54;38.61
6090;BME280;3073;42.660;23.316;2023-04-10T05:11:27;94558.16;;;21.97;38.06
6090;BME280;3073;42.660;23.316;2023-04-10T05:14:02;94564.72;;;22.29;37.17
6090;BME280;3073;42.660;23.316;2023-04-10T05:16:29;94555.81;;;22.56;37.51
6090;BME280;3073;42.660;23.316;2023-04-10T05:18:56;94560.69;;;22.49;37.40
6090;BME280;3073;42.660;23.316;2023-04-10T05:21:23;94562.81;;;23.19;36.44
6090;BME280;3073;42.660;23.316;2023-04-10T05:23:51;94562.34;;;22.79;36.79
6090;BME280;3073;42.660;23.316;2023-04-10T05:26:20;94562.03;;;22.89;36.66
6090;BME280;3073;42.660;23.316;2023-04-10T05:28:47;94567.97;;;23.66;35.57
6090;BME280;3073;42.660;23.316;2023-04-10T05:31:14;94563.88;;;23.85;34.79
6090;BME280;3073;42.660;23.316;2023-04-10T05:33:43;94572.00;;;23.25;35.17
6090;BME280;3073;42.660;23.316;2023-04-10T05:36:12;94564.66;;;21.69;36.90
6090;BME280;3073;42.660;23.316;2023-04-10T05:38:40;94558.59;;;22.17;37.00
6090;BME280;3073;42.660;23.316;2023-04-10T05:41:07;94566.53;;;23.18;35.85
6090;BME280;3073;42.660;23.316;2023-04-10T05:43:35;94562.97;;;22.85;35.85
6090;BME280;3073;42.660;23.316;2023-04-10T05:46:02;94563.13;;;22.63;36.32
6090;BME280;3073;42.660;23.316;2023-04-10T05:48:28;94567.56;;;23.84;34.75
6090;BME280;3073;42.660;23.316;2023-04-10T05:50:55;94567.19;;;24.36;34.58
6090;BME280;3073;42.660;23.316;2023-04-10T05:53:28;94560.44;;;25.00;33.34
6090;BME280;3073;42.660;23.316;2023-04-10T05:55:56;94563.25;;;24.30;34.40
6090;BME280;3073;42.660;23.316;2023-04-10T05:58:24;94579.00;;;23.92;35.04
6090;BME280;3073;42.660;23.316;2023-04-10T06:00:52;94566.19;;;24.07;34.30
6090;BME280;3073;42.660;23.316;2023-04-10T06:03:20;94571.03;;;24.18;34.07
6090;BME280;3073;42.660;23.316;2023-04-10T06:05:48;94570.56;;;23.36;35.19
6090;BME280;3073;42.660;23.316;2023-04-10T06:08:15;94568.97;;;23.82;34.73
6090;BME280;3073;42.660;23.316;2023-04-10T06:10:43;94575.88;;;23.48;35.08
6090;BME280;3073;42.660;23.316;2023-04-10T06:13:10;94573.63;;;23.38;34.90
6090;BME280;3073;42.660;23.316;2023-04-10T06:15:37;94563.88;;;23.27;35.63
6090;BME280;3073;42.660;23.316;2023-04-10T06:18:05;94572.06;;;21.36;37.80
6090;BME280;3073;42.660;23.316;2023-04-10T06:20:32;94572.50;;;21.38;37.82
6090;BME280;3073;42.660;23.316;2023-04-10T06:22:59;94565.16;;;22.23;37.19
6090;BME280;3073;42.660;23.316;2023-04-10T06:25:26;94569.28;;;22.58;36.49
6090;BME280;3073;42.660;23.316;2023-04-10T06:27:53;94554.53;;;21.50;37.71
6090;BME280;3073;42.660;23.316;2023-04-10T06:30:20;94558.41;;;21.22;38.30
6090;BME280;3073;42.660;23.316;2023-04-10T06:32:47;94570.84;;;21.34;38.40
6090;BME280;3073;42.660;23.316;2023-04-10T06:35:15;94559.53;;;21.30;38.41
6090;BME280;3073;42.660;23.316;2023-04-10T06:37:42;94564.97;;;20.36;39.71
6090;BME280;3073;42.660;23.316;2023-04-10T06:40:11;94569.78;;;20.73;39.20
6090;BME280;3073;42.660;23.316;2023-04-10T06:42:38;94561.94;;;20.87;38.83
6090;BME280;3073;42.660;23.316;2023-04-10T06:45:06;94565.75;;;19.65;40.18
6090;BME280;3073;42.660;23.316;2023-04-10T06:47:33;94568.69;;;21.05;39.12
6090;BME280;3073;42.660;23.316;2023-04-10T06:50:02;94567.50;;;21.42;37.74
6090;BME280;3073;42.660;23.316;2023-04-10T06:52:32;94575.00;;;21.43;37.78
6090;BME280;3073;42.660;23.316;2023-04-10T06:54:59;94568.69;;;20.43;39.37
6090;BME280;3073;42.660;23.316;2023-04-10T06:57:26;94572.34;;;21.26;38.16
6090;BME280;3073;42.660;23.316;2023-04-10T06:59:56;94580.63;;;22.11;37.05
6090;BME280;3073;42.660;23.316;2023-04-10T07:02:23;94577.56;;;22.00;37.64
6090;BME280;3073;42.660;23.316;2023-04-10T07:04:53;94581.25;;;22.25;37.32
6090;BME280;3073;42.660;23.316;2023-04-10T07:07:21;94582.06;;;21.60;37.56
6090;BME280;3073;42.660;23.316;2023-04-10T07:09:49;94578.13;;;21.80;38.19
6090;BME280;3073;42.660;23.316;2023-04-10T07:12:16;94577.38;;;21.88;37.42
6090;BME280;3073;42.660;23.316;2023-04-10T07:14:43;94572.44;;;21.61;37.54
6090;BME280;3073;42.660;23.316;2023-04-10T07:17:10;94568.34;;;21.85;37.61
6090;BME280;3073;42.660;23.316;2023-04-10T07:19:41;94578.13;;;20.92;38.44
6090;BME280;3073;42.660;23.316;2023-04-10T07:22:19;94570.41;;;20.79;38.84
6090;BME280;3073;42.660;23.316;2023-04-10T07:24:46;94580.16;;;21.04;38.69
6090;BME280;3073;42.660;23.316;2023-04-10T07:27:16;94580.69;;;21.63;37.82
6090;BME280;3073;42.660;23.316;2023-04-10T07:29:45;94579.22;;;21.31;38.22
6090;BME280;3073;42.660;23.316;2023-04-10T07:32:12;94580.69;;;20.17;38.99
6090;BME280;3073;42.660;23.316;2023-04-10T07:34:40;94583.94;;;20.67;38.83
6090;BME280;3073;42.660;23.316;2023-04-10T07:37:07;94587.00;;;20.25;39.77
6090;BME280;3073;42.660;23.316;2023-04-10T07:39:36;94581.13;;;21.56;38.34
6090;BME280;3073;42.660;23.316;2023-04-10T07:42:03;94581.44;;;21.63;37.95
6090;BME280;3073;42.660;23.316;2023-04-10T07:44:32;94584.97;;;19.86;39.65
6090;BME280;3073;42.660;23.316;2023-04-10T07:47:06;94583.59;;;20.38;39.45
6090;BME280;3073;42.660;23.316;2023-04-10T07:49:33;94582.69;;;20.87;38.66
6090;BME280;3073;42.660;23.316;2023-04-10T07:52:00;94579.72;;;21.41;38.24
6090;BME280;3073;42.660;23.316;2023-04-10T07:54:30;94579.34;;;20.42;39.26
6090;BME280;3073;42.660;23.316;2023-04-10T07:56:57;94585.47;;;21.21;38.04
6090;BME280;3073;42.660;23.316;2023-04-10T07:59:26;94581.53;;;20.71;38.70
6090;BME280;3073;42.660;23.316;2023-04-10T08:01:58;94579.66;;;20.93;38.37
6090;BME280;3073;42.660;23.316;2023-04-10T08:04:27;94577.72;;;19.74;40.03
6090;BME280;3073;42.660;23.316;2023-04-10T08:07:05;94573.94;;;21.62;38.00
6090;BME280;3073;42.660;23.316;2023-04-10T08:09:49;94578.34;;;21.04;38.05
6090;BME280;3073;42.660;23.316;2023-04-10T08:12:25;94579.00;;;20.57;39.12
6090;BME280;3073;42.660;23.316;2023-04-10T08:14:58;94585.34;;;21.35;38.27
6090;BME280;3073;42.660;23.316;2023-04-10T08:17:42;94582.50;;;21.53;37.54
6090;BME280;3073;42.660;23.316;2023-04-10T08:20:11;94580.97;;;21.52;38.00
6090;BME280;3073;42.660;23.316;2023-04-10T08:22:43;94581.72;;;21.44;37.37
6090;BME280;3073;42.660;23.316;2023-04-10T08:25:10;94584.91;;;22.24;37.23
6090;BME280;3073;42.660;23.316;2023-04-10T08:27:37;94575.53;;;21.23;38.09
6090;BME280;3073;42.660;23.316;2023-04-10T08:30:06;94574.19;;;21.99;37.40
6090;BME280;3073;42.660;23.316;2023-04-10T08:32:35;94578.94;;;22.15;37.28
6090;BME280;3073;42.660;23.316;2023-04-10T08:35:05;94583.63;;;22.81;36.24
6090;BME280;3073;42.660;23.316;2023-04-10T08:37:35;94579.06;;;21.36;38.29
6090;BME280;3073;42.660;23.316;2023-04-10T08:40:08;94580.84;;;21.66;38.05
6090;BME280;3073;42.660;23.316;2023-04-10T08:42:35;94574.31;;;21.21;38.08
6090;BME280;3073;42.660;23.316;2023-04-10T08:45:02;94572.59;;;21.64;37.73
6090;BME280;3073;42.660;23.316;2023-04-10T08:47:32;94569.47;;;22.01;37.81
6090;BME280;3073;42.660;23.316;2023-04-10T08:50:09;94581.09;;;22.04;37.39
6090;BME280;3073;42.660;23.316;2023-04-10T08:52:37;94571.97;;;20.88;39.26
6090;BME280;3073;42.660;23.316;2023-04-10T08:55:08;94566.22;;;21.87;37.81
6090;BME280;3073;42.660;23.316;2023-04-10T08:57:39;94567.56;;;21.76;38.06
6090;BME280;3073;42.660;23.316;2023-04-10T09:00:07;94569.00;;;21.91;37.50
6090;BME280;3073;42.660;23.316;2023-04-10T09:02:37;94569.19;;;21.38;37.97
6090;BME280;3073;42.660;23.316;2023-04-10T09:05:10;94567.38;;;21.47;38.01
6090;BME280;3073;42.660;23.316;2023-04-10T09:07:38;94567.69;;;21.54;37.75
6090;BME280;3073;42.660;23.316;2023-04-10T09:10:06;94556.16;;;21.94;37.22
6090;BME280;3073;42.660;23.316;2023-04-10T09:12:42;94550.00;;;21.73;37.76
6090;BME280;3073;42.660;23.316;2023-04-10T09:15:10;94553.66;;;22.49;36.91
6090;BME280;3073;42.660;23.316;2023-04-10T09:17:57;94551.22;;;21.84;37.51
6090;BME280;3073;42.660;23.316;2023-04-10T09:20:28;94549.13;;;22.03;36.94
6090;BME280;3073;42.660;23.316;2023-04-10T09:22:56;94549.56;;;20.92;37.43
6090;BME280;3073;42.660;23.316;2023-04-10T09:25:32;94551.19;;;21.50;37.11
6090;BME280;3073;42.660;23.316;2023-04-10T09:28:03;94542.31;;;20.41;38.41
6090;BME280;3073;42.660;23.316;2023-04-10T09:30:35;94549.13;;;21.30;37.82
6090;BME280;3073;42.660;23.316;2023-04-10T09:33:02;94550.31;;;21.15;38.17
6090;BME280;3073;42.660;23.316;2023-04-10T09:35:37;94552.69;;;20.72;38.06
6090;BME280;3073;42.660;23.316;2023-04-10T09:38:15;94545.88;;;19.74;39.77
6090;BME280;3073;42.660;23.316;2023-04-10T09:40:42;94543.25;;;20.76;38.56
6090;BME280;3073;42.660;23.316;2023-04-10T09:43:17;94551.50;;;21.66;37.53
6090;BME280;3073;42.660;23.316;2023-04-10T09:45:49;94542.66;;;21.75;36.92
6090;BME280;3073;42.660;23.316;2023-04-10T09:48:17;94544.69;;;20.60;38.99
6090;BME280;3073;42.660;23.316;2023-04-10T09:50:45;94538.50;;;20.70;38.84
6090;BME280;3073;42.660;23.316;2023-04-10T09:53:13;94541.78;;;20.92;39.52
6090;BME280;3073;42.660;23.316;2023-04-10T09:55:42;94539.78;;;20.81;38.60
6090;BME280;3073;42.660;23.316;2023-04-10T09:58:09;94541.84;;;20.26;39.76
6090;BME280;3073;42.660;23.316;2023-04-10T10:00:39;94540.25;;;21.22;38.71
6090;BME280;3073;42.660;23.316;2023-04-10T10:03:08;94534.69;;;21.72;37.69
6090;BME280;3073;42.660;23.316;2023-04-10T10:05:37;94531.81;;;21.73;37.86
6090;BME280;3073;42.660;23.316;2023-04-10T10:08:08;94537.22;;;22.92;36.53
6090;BME280;3073;42.660;23.316;2023-04-10T10:10:37;94543.78;;;22.98;36.10
6090;BME280;3073;42.660;23.316;2023-04-10T10:13:06;94534.41;;;22.42;36.21
6090;BME280;3073;42.660;23.316;2023-04-10T10:15:37;94533.34;;;23.06;35.48
6090;BME280;3073;42.660;23.316;2023-04-10T10:18:15;94522.28;;;23.39;35.12
6090;BME280;3073;42.660;23.316;2023-04-10T10:20:44;94532.63;;;21.91;35.36
6090;BME280;3073;42.660;23.316;2023-04-10T10:23:16;94515.03;;;21.88;35.96
6090;BME280;3073;42.660;23.316;2023-04-10T10:25:43;94513.13;;;20.97;36.58
6090;BME280;3073;42.660;23.316;2023-04-10T10:28:12;94514.78;;;22.70;34.94
6090;BME280;3073;42.660;23.316;2023-04-10T10:30:39;94512.38;;;22.39;35.28
6090;BME280;3073;42.660;23.316;2023-04-10T10:33:07;94503.84;;;21.70;36.00
6090;BME280;3073;42.660;23.316;2023-04-10T10:35:36;94509.91;;;21.31;36.52
6090;BME280;3073;42.660;23.316;2023-04-10T10:38:04;94508.28;;;21.70;35.68
6090;BME280;3073;42.660;23.316;2023-04-10T10:40:37;94506.31;;;21.84;35.12
6090;BME280;3073;42.660;23.316;2023-04-10T10:43:12;94498.38;;;21.97;35.42
6090;BME280;3073;42.660;23.316;2023-04-10T10:45:47;94491.13;;;22.37;34.71
6090;BME280;3073;42.660;23.316;2023-04-10T10:48:16;94496.19;;;21.82;35.22
6090;BME280;3073;42.660;23.316;2023-04-10T10:50:50;94487.03;;;23.21;34.04
6090;BME280;3073;42.660;23.316;2023-04-10T10:53:34;94483.53;;;23.87;32.96
6090;BME280;3073;42.660;23.316;2023-04-10T10:56:34;94492.56;;;22.81;34.32
6090;BME280;3073;42.660;23.316;2023-04-10T10:59:01;94486.66;;;23.60;33.32
6090;BME280;3073;42.660;23.316;2023-04-10T11:01:28;94474.94;;;23.66;33.23
6090;BME280;3073;42.660;23.316;2023-04-10T11:03:55;94474.94;;;23.66;33.18
6090;BME280;3073;42.660;23.316;2023-04-10T11:06:48;94464.88;;;23.06;33.88
6090;BME280;3073;42.660;23.316;2023-04-10T11:09:43;94456.75;;;25.01;32.16
6090;BME280;3073;42.660;23.316;2023-04-10T11:12:13;94459.88;;;25.19;31.15
6090;BME280;3073;42.660;23.316;2023-04-10T11:14:41;94453.81;;;23.68;33.39
6090;BME280;3073;42.660;23.316;2023-04-10T11:17:08;94458.75;;;26.24;30.69
6090;BME280;3073;42.660;23.316;2023-04-10T11:19:56;94458.56;;;27.42;29.83
6090;BME280;3073;42.660;23.316;2023-04-10T11:22:24;94445.22;;;26.96;29.38
6090;BME280;3073;42.660;23.316;2023-04-10T11:24:53;94444.06;;;27.29;29.36
6090;BME280;3073;42.660;23.316;2023-04-10T11:27:43;94443.84;;;25.56;30.27
6090;BME280;3073;42.660;23.316;2023-04-10T11:30:28;94436.97;;;24.88;30.78
6090;BME280;3073;42.660;23.316;2023-04-10T11:32:56;94436.63;;;23.87;32.41
6090;BME280;3073;42.660;23.316;2023-04-10T11:35:24;94436.50;;;23.22;33.75
6090;BME280;3073;42.660;23.316;2023-04-10T11:38:08;94436.25;;;23.06;35.22
6090;BME280;3073;42.660;23.316;2023-04-10T11:40:35;94448.13;;;22.95;34.65
6090;BME280;3073;42.660;23.316;2023-04-10T11:43:13;94439.88;;;23.84;34.56
6090;BME280;3073;42.660;23.316;2023-04-10T11:45:40;94436.34;;;24.01;33.95
6090;BME280;3073;42.660;23.316;2023-04-10T11:48:07;94438.25;;;24.94;33.34
6090;BME280;3073;42.660;23.316;2023-04-10T11:50:35;94444.34;;;26.30;31.57
6090;BME280;3073;42.660;23.316;2023-04-10T11:53:01;94434.13;;;25.97;32.09
6090;BME280;3073;42.660;23.316;2023-04-10T11:55:42;94436.72;;;25.97;31.25
6090;BME280;3073;42.660;23.316;2023-04-10T11:58:22;94434.84;;;25.42;30.63
6090;BME280;3073;42.660;23.316;2023-04-10T12:00:56;94434.78;;;24.21;32.44
6090;BME280;3073;42.660;23.316;2023-04-10T12:03:37;94434.16;;;23.70;33.49
6090;BME280;3073;42.660;23.316;2023-04-10T12:06:10;94429.75;;;24.48;31.55
6090;BME280;3073;42.660;23.316;2023-04-10T12:08:40;94424.63;;;24.07;32.03
6090;BME280;3073;42.660;23.316;2023-04-10T12:11:08;94428.41;;;24.09;32.45
6090;BME280;3073;42.660;23.316;2023-04-10T12:13:38;94420.47;;;24.39;31.80
6090;BME280;3073;42.660;23.316;2023-04-10T12:16:06;94422.50;;;23.88;32.74
6090;BME280;3073;42.660;23.316;2023-04-10T12:18:37;94431.41;;;23.87;32.61
6090;BME280;3073;42.660;23.316;2023-04-10T12:21:05;94428.56;;;23.59;33.17
6090;BME280;3073;42.660;23.316;2023-04-10T12:23:33;94440.97;;;22.83;35.50
6090;BME280;3073;42.660;23.316;2023-04-10T12:26:07;94448.78;;;22.37;36.31
6090;BME280;3073;42.660;23.316;2023-04-10T12:28:34;94448.47;;;22.30;37.69
6090;BME280;3073;42.660;23.316;2023-04-10T12:31:03;94458.16;;;22.58;36.96
6090;BME280;3073;42.660;23.316;2023-04-10T12:33:30;94447.47;;;21.96;38.41
6090;BME280;3073;42.660;23.316;2023-04-10T12:35:57;94455.19;;;22.86;37.94
6090;BME280;3073;42.660;23.316;2023-04-10T12:38:37;94451.56;;;21.89;40.27
6090;BME280;3073;42.660;23.316;2023-04-10T12:41:05;94445.44;;;21.16;40.98
6090;BME280;3073;42.660;23.316;2023-04-10T12:43:34;94455.66;;;22.41;40.23
6090;BME280;3073;42.660;23.316;2023-04-10T12:46:04;94459.50;;;22.27;40.27
6090;BME280;3073;42.660;23.316;2023-04-10T12:48:32;94439.66;;;21.62;39.55
6090;BME280;3073;42.660;23.316;2023-04-10T12:51:07;94441.22;;;22.52;38.13
6090;BME280;3073;42.660;23.316;2023-04-10T12:53:42;94440.19;;;22.36;37.49
6090;BME280;3073;42.660;23.316;2023-04-10T12:56:17;94437.34;;;23.05;36.50
6090;BME280;3073;42.660;23.316;2023-04-10T12:58:44;94442.16;;;23.65;35.83
6090;BME280;3073;42.660;23.316;2023-04-10T13:01:13;94438.75;;;23.23;35.62
6090;BME280;3073;42.660;23.316;2023-04-10T13:03:41;94447.19;;;23.49;35.63
6090;BME280;3073;42.660;23.316;2023-04-10T13:06:08;94443.25;;;24.18;34.79
6090;BME280;3073;42.660;23.316;2023-04-10T13:08:34;94432.19;;;24.00;35.21
6090;BME280;3073;42.660;23.316;2023-04-10T13:11:03;94431.78;;;24.43;34.44
6090;BME280;3073;42.660;23.316;2023-04-10T13:13:31;94436.97;;;24.88;34.74
6090;BME280;3073;42.660;23.316;2023-04-10T13:15:58;94427.66;;;25.51;33.87
6090;BME280;3073;42.660;23.316;2023-04-10T13:18:27;94434.34;;;26.20;33.49
6090;BME280;3073;42.660;23.316;2023-04-10T13:20:54;94435.25;;;26.71;32.51
6090;BME280;3073;42.660;23.316;2023-04-10T13:23:21;94418.75;;;25.95;32.49